KPBI/PBI METAR and TAF weather

Enter ICAO airport designator
Station Type Date Time Source
KPBI METAR 2019/08/23 14:53 UTC NOAA

KPBI 231453Z 08012KT 10SM SCT019 SCT028 BKN040 29/24 A2999 RMK AO2 SLP154 CB DSNT E-SE T02890239 51007


Station Type Date Time Source
KPBI Decoded METAR 2019/08/23 14:53 UTC NOAA

Station name not available
Aug 23, 2019 - 10:53 AM EDT / 2019.08.23 1453 UTC
Wind: from the E (080 degrees) at 14 MPH (12 KT):0
Visibility: 10 mile(s):0
Sky conditions: mostly cloudy
Weather: Cumulonimbus clouds observed
Temperature: 84.0 F (28.9 C)
Dew Point: 75.0 F (23.9 C)
Relative Humidity: 74%
Pressure (altimeter): 29.99 in. Hg (1015 hPa)
Pressure tendency: 0.02 inches (0.7 hPa) higher than three hours ago
ob: KPBI 231453Z 08012KT 10SM SCT019 SCT028 BKN040 29/24 A2999 RMK AO2 SLP154 CB DSNT E-SE T02890239 51007
cycle: 15

Station Type Date Time Source
KPBI TAF 2019/08/23 15:58 UTC NOAA

TAF
AMD KPBI 231451Z 2315/2412 10010KT P6SM VCSH SCT015 BKN045
FM231800 11012KT P6SM VCTS SCT025CB BKN045
FM240100 12008KT P6SM VCSH SCT030

Example: see airport list